createdAt,value
2023-12-14T00:02:03.734Z,26.15
2023-12-14T00:04:30.808Z,25.17
2023-12-14T00:06:57.866Z,23.83
2023-12-14T00:09:24.864Z,25.40
2023-12-14T00:11:51.784Z,25.33
2023-12-14T00:14:18.780Z,25.23
2023-12-14T00:16:45.846Z,23.33
2023-12-14T00:19:12.806Z,24.23
2023-12-14T00:21:39.820Z,24.45
2023-12-14T00:24:07.856Z,27.58
2023-12-14T00:26:34.820Z,24.85
2023-12-14T00:29:02.565Z,25.60
2023-12-14T00:31:29.956Z,24.48
2023-12-14T00:33:56.962Z,25.75
2023-12-14T00:36:23.885Z,23.52
2023-12-14T00:38:50.941Z,25.95
2023-12-14T00:41:17.995Z,26.83
2023-12-14T00:43:45.018Z,26.13
2023-12-14T00:46:12.703Z,26.50
2023-12-14T00:48:39.835Z,27.77
2023-12-14T00:51:07.125Z,24.60
2023-12-14T00:53:34.227Z,26.02
2023-12-14T00:56:01.178Z,23.30
2023-12-14T00:58:28.511Z,25.77
2023-12-14T01:00:56.059Z,25.38
2023-12-14T01:03:23.256Z,26.38
2023-12-14T01:05:50.400Z,27.13
2023-12-14T01:08:17.412Z,28.45
2023-12-14T01:10:44.930Z,26.08
2023-12-14T01:13:11.971Z,24.90
2023-12-14T01:15:38.900Z,27.40
2023-12-14T01:18:05.984Z,28.15
2023-12-14T01:20:33.409Z,26.75
2023-12-14T01:23:00.505Z,26.77
2023-12-14T01:25:27.767Z,24.67
2023-12-14T01:27:54.815Z,26.73
2023-12-14T01:30:21.865Z,28.20
2023-12-14T01:32:48.989Z,24.85
2023-12-14T01:35:16.169Z,24.55
2023-12-14T01:37:43.172Z,25.25
2023-12-14T01:40:10.558Z,24.75
2023-12-14T01:42:37.703Z,25.25
2023-12-14T01:45:06.627Z,26.00
2023-12-14T01:47:33.691Z,26.83
2023-12-14T01:50:00.810Z,22.67
2023-12-14T01:52:27.839Z,22.77
2023-12-14T01:54:56.493Z,24.65
2023-12-14T01:57:23.415Z,25.85
2023-12-14T01:59:50.369Z,24.17
2023-12-14T02:02:17.489Z,24.35
2023-12-14T02:04:45.011Z,23.63
2023-12-14T02:07:12.305Z,25.77
2023-12-14T02:09:39.357Z,25.42
2023-12-14T02:12:06.723Z,22.20
2023-12-14T02:14:33.725Z,25.65
2023-12-14T02:17:00.928Z,24.35
2023-12-14T02:19:27.827Z,24.35
2023-12-14T02:21:54.822Z,24.27
2023-12-14T02:24:21.798Z,23.90
2023-12-14T02:27:02.067Z,27.65
2023-12-14T02:29:31.248Z,24.33
2023-12-14T02:31:58.444Z,27.00
2023-12-14T02:34:26.689Z,21.55
2023-12-14T02:36:54.216Z,23.10
2023-12-14T02:39:21.232Z,20.40
2023-12-14T02:41:48.274Z,23.60
2023-12-14T02:44:15.386Z,21.17
2023-12-14T02:46:42.552Z,20.95
2023-12-14T02:49:10.134Z,22.08
2023-12-14T02:51:37.395Z,22.23
2023-12-14T02:54:04.321Z,19.85
2023-12-14T02:56:31.252Z,20.05
2023-12-14T02:58:58.238Z,23.77
2023-12-14T03:01:25.435Z,22.60
2023-12-14T03:03:52.546Z,23.65
2023-12-14T03:06:19.573Z,23.42
2023-12-14T03:08:46.628Z,20.98
2023-12-14T03:11:23.296Z,20.08
2023-12-14T03:13:50.906Z,23.27
2023-12-14T03:16:20.800Z,22.33
2023-12-14T03:18:47.882Z,21.98
2023-12-14T03:21:14.791Z,21.45
2023-12-14T03:23:41.751Z,22.17
2023-12-14T03:26:08.841Z,21.92
2023-12-14T03:28:36.314Z,22.08
2023-12-14T03:31:03.484Z,21.00
2023-12-14T03:33:31.075Z,21.70
2023-12-14T03:35:58.263Z,21.85
2023-12-14T03:38:25.215Z,23.17
2023-12-14T03:40:52.136Z,20.95
2023-12-14T03:43:19.248Z,19.65
2023-12-14T03:45:46.198Z,22.85
2023-12-14T03:48:13.326Z,22.42
2023-12-14T03:50:40.262Z,21.25
2023-12-14T03:53:07.412Z,22.60
2023-12-14T03:55:34.903Z,18.95
2023-12-14T03:58:02.048Z,22.73
2023-12-14T04:00:29.007Z,21.17
2023-12-14T04:02:56.040Z,25.92
2023-12-14T04:05:23.209Z,57.08
2023-12-14T04:07:50.359Z,59.97
2023-12-14T04:10:17.384Z,27.08
2023-12-14T04:12:45.138Z,37.38
2023-12-14T04:15:12.252Z,28.38
2023-12-14T04:17:39.590Z,20.75
2023-12-14T04:20:07.937Z,19.55
2023-12-14T04:22:35.611Z,23.30
2023-12-14T04:25:02.662Z,21.25
2023-12-14T04:27:31.329Z,19.60
2023-12-14T04:29:58.577Z,23.45
2023-12-14T04:32:25.693Z,19.92
2023-12-14T04:34:52.783Z,20.88
2023-12-14T04:37:20.125Z,21.15
2023-12-14T04:39:47.091Z,20.67
2023-12-14T04:42:14.040Z,19.65
2023-12-14T04:44:40.992Z,23.27
2023-12-14T04:47:09.646Z,23.88
2023-12-14T04:49:37.370Z,23.90
2023-12-14T04:52:04.786Z,24.15
2023-12-14T04:54:31.793Z,23.55
2023-12-14T04:56:58.859Z,22.17
2023-12-14T04:59:25.947Z,22.02
2023-12-14T05:01:52.968Z,23.00
2023-12-14T05:04:19.992Z,24.90
2023-12-14T05:06:46.948Z,25.15
2023-12-14T05:09:14.058Z,22.20
2023-12-14T05:11:41.912Z,24.52
2023-12-14T05:14:09.161Z,23.77
2023-12-14T05:16:36.183Z,25.55
2023-12-14T05:19:03.161Z,22.77
2023-12-14T05:21:30.106Z,22.35
2023-12-14T05:23:57.165Z,22.48
2023-12-14T05:26:24.172Z,24.60
2023-12-14T05:28:51.167Z,29.92
2023-12-14T05:31:18.183Z,20.92
2023-12-14T05:33:45.391Z,23.65
2023-12-14T05:36:12.622Z,20.75
2023-12-14T05:38:40.360Z,20.20
2023-12-14T05:41:07.718Z,23.38
2023-12-14T05:43:34.780Z,24.17
2023-12-14T05:46:01.842Z,27.20
2023-12-14T05:48:29.693Z,29.88
2023-12-14T05:50:57.950Z,20.23
2023-12-14T05:53:24.942Z,20.75
2023-12-14T05:55:52.257Z,26.13
2023-12-14T05:58:19.870Z,23.63
2023-12-14T06:00:46.954Z,24.90
2023-12-14T06:03:13.879Z,25.15
2023-12-14T06:05:41.085Z,22.00
2023-12-14T06:08:08.456Z,22.30
2023-12-14T06:10:35.642Z,20.05
2023-12-14T06:13:02.893Z,21.42
2023-12-14T06:15:29.816Z,23.77
2023-12-14T06:17:56.889Z,20.52
2023-12-14T06:20:24.405Z,18.98
2023-12-14T06:22:51.530Z,20.13
2023-12-14T06:25:18.532Z,19.75
2023-12-14T06:27:46.198Z,18.55
2023-12-14T06:30:13.665Z,18.05
2023-12-14T06:32:41.275Z,21.77
2023-12-14T06:35:08.661Z,20.17
2023-12-14T06:37:35.717Z,19.23
2023-12-14T06:40:02.672Z,22.60
2023-12-14T06:42:29.691Z,23.30
2023-12-14T06:44:56.741Z,20.52
2023-12-14T06:47:23.717Z,28.98
2023-12-14T06:49:51.668Z,22.63
2023-12-14T06:52:18.731Z,19.67
2023-12-14T06:54:45.975Z,19.48
2023-12-14T06:57:13.404Z,21.52
2023-12-14T06:59:40.367Z,22.23
2023-12-14T07:02:08.215Z,26.15
2023-12-14T07:04:35.195Z,51.38
2023-12-14T07:07:02.674Z,22.35
2023-12-14T07:09:29.677Z,24.58
2023-12-14T07:11:56.926Z,20.10
2023-12-14T07:14:26.374Z,55.13
2023-12-14T07:16:53.569Z,32.65
2023-12-14T07:19:20.592Z,24.80
2023-12-14T07:21:47.955Z,21.02
2023-12-14T07:24:14.917Z,39.70
2023-12-14T07:26:41.868Z,23.60
2023-12-14T07:29:08.887Z,21.67
2023-12-14T07:31:35.890Z,25.30
2023-12-14T07:34:02.903Z,18.50
2023-12-14T07:36:29.846Z,27.83
2023-12-14T07:38:56.924Z,22.40
2023-12-14T07:41:27.850Z,40.45
2023-12-14T07:43:55.136Z,103.82
2023-12-14T07:46:22.488Z,46.08
2023-12-14T07:48:49.443Z,26.33
2023-12-14T07:51:16.453Z,34.65
2023-12-14T07:53:44.016Z,21.23
2023-12-14T07:56:11.136Z,27.05
2023-12-14T07:58:38.378Z,59.60
2023-12-14T08:01:05.813Z,81.80
2023-12-14T08:03:32.814Z,33.38
2023-12-14T08:05:59.853Z,27.95
2023-12-14T08:08:27.513Z,27.85
2023-12-14T08:10:54.546Z,23.52
2023-12-14T08:13:21.528Z,22.15
2023-12-14T08:15:48.607Z,30.63
2023-12-14T08:18:15.704Z,23.23
2023-12-14T08:20:42.957Z,24.88
2023-12-14T08:23:09.977Z,50.40
2023-12-14T08:25:37.073Z,38.67
2023-12-14T08:28:05.880Z,64.38
2023-12-14T08:30:33.152Z,25.80
2023-12-14T08:33:00.305Z,19.10
2023-12-14T08:35:27.462Z,21.90
2023-12-14T08:37:54.498Z,31.65
2023-12-14T08:40:21.614Z,29.90
2023-12-14T08:42:48.968Z,29.77
2023-12-14T08:45:16.070Z,27.98
2023-12-14T08:47:44.282Z,24.65
2023-12-14T08:50:12.485Z,47.72
2023-12-14T08:52:39.520Z,54.65
2023-12-14T08:55:07.226Z,25.80
2023-12-14T08:57:34.143Z,34.67
2023-12-14T09:00:01.111Z,41.45
2023-12-14T09:02:28.305Z,21.13
2023-12-14T09:04:55.492Z,19.65
2023-12-14T09:07:22.503Z,21.35
2023-12-14T09:09:49.519Z,29.08
2023-12-14T09:12:16.506Z,22.17
2023-12-14T09:14:43.481Z,25.52
2023-12-14T09:17:10.496Z,19.98
2023-12-14T09:19:37.589Z,22.23
2023-12-14T09:22:04.685Z,18.23
2023-12-14T09:24:31.632Z,18.92
2023-12-14T09:26:58.552Z,17.95
2023-12-14T09:29:25.555Z,27.92
2023-12-14T09:31:53.031Z,21.02
2023-12-14T09:34:20.182Z,32.50
2023-12-14T09:36:47.248Z,35.88
2023-12-14T09:39:15.028Z,22.65
2023-12-14T09:41:42.145Z,19.63
2023-12-14T09:44:09.217Z,28.88
2023-12-14T09:46:39.406Z,59.33
2023-12-14T09:49:08.917Z,17.80
2023-12-14T09:51:37.521Z,16.45
2023-12-14T09:54:04.683Z,20.17
2023-12-14T09:56:31.951Z,27.45
2023-12-14T09:58:59.722Z,19.00
2023-12-14T10:01:28.049Z,20.02
2023-12-14T10:04:13.352Z,31.23
2023-12-14T10:06:41.617Z,42.20
2023-12-14T10:09:14.759Z,83.57
2023-12-14T10:11:42.391Z,24.45
2023-12-14T10:14:23.831Z,35.75
2023-12-14T10:16:52.657Z,21.98
2023-12-14T10:19:21.244Z,17.92
2023-12-14T10:21:49.487Z,28.05
2023-12-14T10:24:20.420Z,23.45
2023-12-14T10:26:48.749Z,15.45
2023-12-14T10:29:16.629Z,16.88
2023-12-14T10:31:45.145Z,26.15
2023-12-14T10:34:14.336Z,17.95
2023-12-14T10:36:44.184Z,17.80
2023-12-14T10:39:14.995Z,32.85
2023-12-14T10:41:43.481Z,17.25
2023-12-14T10:44:22.070Z,27.77
2023-12-14T10:46:59.998Z,15.90
2023-12-14T10:49:28.077Z,18.00
2023-12-14T10:51:58.205Z,25.30
2023-12-14T10:54:26.532Z,30.13
2023-12-14T10:56:58.075Z,38.47
2023-12-14T10:59:25.923Z,61.55
2023-12-14T11:01:58.576Z,31.77
2023-12-14T11:04:28.617Z,22.23
2023-12-14T11:06:56.191Z,17.73
2023-12-14T11:09:26.049Z,30.98
2023-12-14T11:12:00.147Z,21.35
2023-12-14T11:14:28.339Z,17.20
2023-12-14T11:16:57.649Z,18.15
2023-12-14T11:19:24.643Z,14.65
2023-12-14T11:21:54.786Z,19.55
2023-12-14T11:24:22.026Z,17.55
2023-12-14T11:26:50.990Z,14.20
2023-12-14T11:29:23.301Z,20.13
2023-12-14T11:31:50.425Z,23.75
2023-12-14T11:34:18.468Z,17.10
2023-12-14T11:36:47.164Z,22.48
2023-12-14T11:39:14.251Z,36.38
2023-12-14T11:41:41.216Z,39.22
2023-12-14T11:44:08.396Z,59.17
2023-12-14T11:46:35.838Z,65.72
2023-12-14T11:49:05.096Z,42.40
2023-12-14T11:51:34.746Z,57.05
2023-12-14T11:54:03.638Z,45.58
2023-12-14T11:56:32.254Z,36.25
2023-12-14T11:58:59.512Z,26.63
2023-12-14T12:01:27.837Z,31.00
2023-12-14T12:03:55.500Z,40.72
2023-12-14T12:06:29.286Z,141.32
2023-12-14T12:08:56.518Z,50.78
2023-12-14T12:11:26.553Z,31.67
2023-12-14T12:13:58.490Z,47.92
2023-12-14T12:16:26.732Z,38.13
2023-12-14T12:18:54.412Z,20.73
2023-12-14T12:21:21.590Z,23.27
2023-12-14T12:23:48.595Z,36.83
2023-12-14T12:26:15.980Z,47.75
2023-12-14T12:28:42.959Z,36.63
2023-12-14T12:31:10.082Z,25.48
2023-12-14T12:33:39.656Z,39.47
2023-12-14T12:36:07.609Z,46.15
2023-12-14T12:38:34.925Z,69.82
2023-12-14T12:41:02.689Z,41.33
2023-12-14T12:43:30.300Z,42.33
2023-12-14T12:45:59.282Z,112.53
2023-12-14T12:48:27.863Z,44.30
2023-12-14T12:50:55.477Z,63.78
2023-12-14T12:53:22.600Z,37.85
2023-12-14T12:55:49.801Z,49.20
2023-12-14T12:58:16.898Z,43.70
2023-12-14T13:00:43.904Z,42.35
2023-12-14T13:03:12.146Z,26.70
2023-12-14T13:05:39.304Z,34.63
2023-12-14T13:08:06.860Z,38.33
2023-12-14T13:10:33.863Z,42.30
2023-12-14T13:13:01.013Z,35.45
2023-12-14T13:15:30.770Z,49.78
2023-12-14T13:17:58.774Z,37.92
2023-12-14T13:20:26.026Z,55.95
2023-12-14T13:22:54.478Z,54.90
2023-12-14T13:25:24.098Z,39.47
2023-12-14T13:27:51.223Z,34.45
2023-12-14T13:30:19.471Z,42.78
2023-12-14T13:32:47.145Z,26.73
2023-12-14T13:35:14.560Z,35.58
2023-12-14T13:37:42.751Z,36.53
2023-12-14T13:40:13.209Z,25.08
2023-12-14T13:42:46.879Z,25.67
2023-12-14T13:45:21.966Z,28.10
2023-12-14T13:47:49.122Z,28.67
2023-12-14T13:50:16.269Z,27.58
2023-12-14T13:52:44.503Z,30.30
2023-12-14T13:55:11.509Z,47.63
2023-12-14T13:57:38.633Z,23.60
2023-12-14T14:00:07.256Z,37.25
2023-12-14T14:02:34.606Z,24.83
2023-12-14T14:05:01.767Z,25.67
2023-12-14T14:07:28.748Z,132.82
2023-12-14T14:09:56.128Z,174.43
2023-12-14T14:12:23.536Z,35.55
2023-12-14T14:14:51.002Z,35.22
2023-12-14T14:17:18.623Z,40.28
2023-12-14T14:19:45.755Z,51.05
2023-12-14T14:22:12.770Z,55.42
2023-12-14T14:24:39.711Z,41.45
2023-12-14T14:27:07.005Z,53.92
2023-12-14T14:29:34.058Z,37.17
2023-12-14T14:32:01.120Z,38.10
2023-12-14T14:34:28.380Z,70.32
2023-12-14T14:36:55.358Z,66.30
2023-12-14T14:39:22.432Z,61.10
2023-12-14T14:41:49.393Z,61.22
2023-12-14T14:44:16.710Z,35.83
2023-12-14T14:46:44.655Z,42.85
2023-12-14T14:49:12.119Z,48.78
2023-12-14T14:51:40.194Z,53.78
2023-12-14T14:54:07.124Z,35.67
2023-12-14T14:56:34.171Z,50.35
2023-12-14T14:59:01.255Z,34.20
2023-12-14T15:01:28.291Z,33.03
2023-12-14T15:03:55.414Z,39.83
2023-12-14T15:06:24.329Z,30.35
2023-12-14T15:08:51.345Z,43.95
2023-12-14T15:11:18.452Z,37.85
2023-12-14T15:13:45.470Z,40.05
2023-12-14T15:16:13.060Z,52.97
2023-12-14T15:18:42.863Z,64.53
2023-12-14T15:21:15.712Z,82.65
2023-12-14T15:23:45.420Z,48.33
2023-12-14T15:26:12.634Z,30.08
2023-12-14T15:28:40.177Z,32.90
2023-12-14T15:31:08.331Z,50.38
2023-12-14T15:33:35.623Z,34.15
2023-12-14T15:36:06.443Z,48.55
2023-12-14T15:38:33.570Z,26.75
2023-12-14T15:41:00.539Z,29.20
2023-12-14T15:43:27.572Z,22.25
2023-12-14T15:45:54.585Z,46.03
2023-12-14T15:48:21.721Z,59.47
2023-12-14T15:50:48.773Z,67.80
2023-12-14T15:53:15.777Z,38.80
2023-12-14T15:55:42.860Z,45.30
2023-12-14T15:58:12.761Z,20.98
2023-12-14T16:00:40.167Z,27.42
2023-12-14T16:03:09.341Z,41.50
2023-12-14T16:05:37.187Z,39.05
2023-12-14T16:08:04.313Z,43.33
2023-12-14T16:10:32.451Z,39.22
2023-12-14T16:12:59.591Z,43.83
2023-12-14T16:15:26.817Z,41.67
2023-12-14T16:17:53.943Z,49.80
2023-12-14T16:20:24.006Z,59.25
2023-12-14T16:22:54.255Z,61.83
2023-12-14T16:25:21.382Z,60.97
2023-12-14T16:27:48.852Z,51.80
2023-12-14T16:30:17.337Z,49.10
2023-12-14T16:32:44.502Z,43.65
2023-12-14T16:35:11.939Z,38.85
2023-12-14T16:37:39.043Z,58.28
2023-12-14T16:40:06.837Z,62.17
2023-12-14T16:42:34.180Z,60.95
2023-12-14T16:45:01.289Z,57.35
2023-12-14T16:47:28.699Z,53.75
2023-12-14T16:49:55.974Z,57.92
2023-12-14T16:52:23.403Z,74.47
2023-12-14T16:54:50.388Z,67.55
2023-12-14T16:57:17.585Z,103.65
2023-12-14T16:59:45.426Z,95.20
2023-12-14T17:02:12.413Z,91.93
2023-12-14T17:04:40.926Z,84.55
2023-12-14T17:07:08.074Z,89.03
2023-12-14T17:09:34.971Z,88.68
2023-12-14T17:12:01.964Z,93.22
2023-12-14T17:14:29.111Z,96.95
2023-12-14T17:16:56.333Z,134.15
2023-12-14T17:19:23.256Z,172.98
2023-12-14T17:21:55.228Z,124.32
2023-12-14T17:24:22.453Z,102.03
2023-12-14T17:26:49.374Z,113.20
2023-12-14T17:29:16.418Z,101.43
2023-12-14T17:31:44.815Z,77.85
2023-12-14T17:34:12.106Z,92.55
2023-12-14T17:36:40.860Z,89.93
2023-12-14T17:39:07.954Z,80.28
2023-12-14T17:41:34.980Z,84.88
2023-12-14T17:44:02.088Z,88.93
2023-12-14T17:46:29.219Z,116.88
2023-12-14T17:48:57.003Z,186.95
2023-12-14T17:51:24.076Z,194.38
2023-12-14T17:53:51.118Z,199.30
2023-12-14T17:56:18.140Z,191.43
2023-12-14T17:58:46.905Z,156.27
2023-12-14T18:01:15.155Z,179.27
2023-12-14T18:03:42.386Z,181.63
2023-12-14T18:06:09.541Z,131.73
2023-12-14T18:08:36.623Z,169.07
2023-12-14T18:11:03.879Z,184.85
2023-12-14T18:13:31.072Z,120.13
2023-12-14T18:15:58.263Z,93.40
2023-12-14T18:18:25.907Z,65.70
2023-12-14T18:20:53.298Z,66.90
2023-12-14T18:23:20.433Z,60.53
2023-12-14T18:25:47.856Z,53.97
2023-12-14T18:28:17.895Z,56.30
2023-12-14T18:30:45.420Z,35.75
2023-12-14T18:33:13.029Z,40.28
2023-12-14T18:35:40.088Z,45.50
2023-12-14T18:38:07.060Z,45.08
2023-12-14T18:40:34.118Z,44.05
2023-12-14T18:43:01.156Z,45.08
2023-12-14T18:45:28.228Z,51.83
2023-12-14T18:47:55.281Z,42.42
2023-12-14T18:50:22.339Z,36.35
2023-12-14T18:52:49.441Z,44.13
2023-12-14T18:55:16.866Z,35.58
2023-12-14T18:57:46.664Z,42.00
2023-12-14T19:00:14.103Z,44.00
2023-12-14T19:02:41.284Z,38.50
2023-12-14T19:05:09.157Z,33.28
2023-12-14T19:07:36.564Z,38.35
2023-12-14T19:10:07.657Z,37.72
2023-12-14T19:12:38.118Z,49.70
2023-12-14T19:15:06.201Z,100.03
2023-12-14T19:17:33.676Z,104.93
2023-12-14T19:20:01.467Z,95.93
2023-12-14T19:22:29.194Z,107.65
2023-12-14T19:24:56.302Z,112.30
2023-12-14T19:27:23.336Z,112.97
2023-12-14T19:29:50.465Z,105.50
2023-12-14T19:32:18.171Z,115.35
2023-12-14T19:34:45.819Z,118.22
2023-12-14T19:37:13.010Z,128.57
2023-12-14T19:39:40.073Z,126.32
2023-12-14T19:42:08.169Z,135.38
2023-12-14T19:44:35.365Z,140.95
2023-12-14T19:47:02.593Z,130.27
2023-12-14T19:49:29.923Z,155.00
2023-12-14T19:51:57.769Z,176.95
2023-12-14T19:54:24.813Z,153.93
2023-12-14T19:56:51.916Z,139.05
2023-12-14T19:59:18.976Z,130.68
2023-12-14T20:01:46.415Z,137.77
2023-12-14T20:04:15.715Z,96.00
2023-12-14T20:06:44.337Z,110.18
2023-12-14T20:09:11.274Z,93.32
2023-12-14T20:11:38.191Z,98.10
2023-12-14T20:14:05.292Z,80.65
2023-12-14T20:16:32.337Z,77.03
2023-12-14T20:18:59.510Z,79.13
2023-12-14T20:21:26.632Z,72.18
2023-12-14T20:23:53.658Z,67.82
2023-12-14T20:26:26.990Z,68.88
2023-12-14T20:28:54.374Z,53.05
2023-12-14T20:31:21.610Z,44.40
2023-12-14T20:33:48.707Z,45.65
2023-12-14T20:36:16.118Z,47.72
2023-12-14T20:38:44.664Z,39.78
2023-12-14T20:41:14.600Z,37.53
2023-12-14T20:43:41.942Z,32.00
2023-12-14T20:46:08.872Z,35.88
2023-12-14T20:48:38.928Z,36.75
2023-12-14T20:51:06.586Z,30.85
2023-12-14T20:53:33.587Z,30.33
2023-12-14T20:56:00.707Z,32.15
2023-12-14T20:58:27.720Z,30.67
2023-12-14T21:00:54.766Z,31.45
2023-12-14T21:03:21.746Z,36.40
2023-12-14T21:05:50.252Z,26.95
2023-12-14T21:08:17.919Z,13.23
2023-12-14T21:10:45.249Z,13.32
2023-12-14T21:13:12.450Z,7.45
2023-12-14T21:15:39.617Z,12.60
2023-12-14T21:18:07.119Z,6.32
2023-12-14T21:20:34.278Z,5.20
2023-12-14T21:23:01.465Z,5.88
2023-12-14T21:25:39.606Z,4.97
2023-12-14T21:30:35.451Z,7.85
2023-12-14T21:33:02.815Z,5.90
2023-12-14T21:35:30.193Z,4.43
2023-12-14T21:37:57.302Z,7.03
2023-12-14T21:40:24.443Z,9.48
2023-12-14T21:42:51.573Z,4.38
2023-12-14T21:45:18.595Z,4.32
2023-12-14T21:47:45.911Z,4.32
2023-12-14T21:50:13.352Z,9.75
2023-12-14T21:52:41.074Z,6.50
2023-12-14T21:55:08.442Z,10.88
2023-12-14T21:57:35.719Z,10.30
2023-12-14T22:00:03.085Z,4.18
2023-12-14T22:02:31.236Z,3.40
2023-12-14T22:04:58.885Z,6.93
2023-12-14T22:07:25.926Z,6.00
2023-12-14T22:09:53.473Z,3.70
2023-12-14T22:12:21.982Z,5.43
2023-12-14T22:14:49.556Z,27.98
2023-12-14T22:17:16.529Z,19.85
2023-12-14T22:19:43.498Z,3.35
2023-12-14T22:22:10.439Z,3.65
2023-12-14T22:24:37.857Z,20.92
2023-12-14T22:27:06.586Z,6.88
2023-12-14T22:29:33.655Z,6.43
2023-12-14T22:32:00.967Z,3.35
2023-12-14T22:34:28.392Z,9.13
2023-12-14T22:36:55.377Z,5.53
2023-12-14T22:39:22.302Z,3.33
2023-12-14T22:41:49.334Z,4.38
2023-12-14T22:44:16.381Z,5.80
2023-12-14T22:46:43.351Z,5.32
2023-12-14T22:49:10.608Z,3.22
2023-12-14T22:51:38.284Z,2.53
2023-12-14T22:54:05.473Z,64.78
2023-12-14T22:56:32.763Z,5.32
2023-12-14T22:59:00.305Z,2.40
2023-12-14T23:01:32.482Z,2.30
2023-12-14T23:04:00.348Z,4.30
2023-12-14T23:06:27.450Z,2.10
2023-12-14T23:08:55.238Z,13.10
2023-12-14T23:11:22.497Z,3.10
2023-12-14T23:13:49.922Z,3.08
2023-12-14T23:16:17.062Z,1.70
2023-12-14T23:18:44.169Z,2.17
2023-12-14T23:21:11.266Z,1.95
2023-12-14T23:23:38.240Z,2.38
2023-12-14T23:26:05.893Z,2.40
2023-12-14T23:28:32.980Z,2.35
2023-12-14T23:30:59.992Z,2.67
2023-12-14T23:33:27.157Z,3.35
2023-12-14T23:35:54.205Z,3.08
2023-12-14T23:38:21.349Z,1.50
2023-12-14T23:40:48.495Z,2.22
2023-12-14T23:43:15.677Z,1.50
2023-12-14T23:45:42.642Z,1.75
2023-12-14T23:48:09.941Z,3.00
2023-12-14T23:50:37.042Z,2.28
2023-12-14T23:53:03.980Z,1.55
2023-12-14T23:55:30.989Z,2.00
2023-12-14T23:57:57.981Z,2.42
